createdAt,value
2023-02-02T00:00:01.208Z,3.8
2023-02-02T00:01:01.569Z,3.8
2023-02-02T00:02:01.560Z,3.8
2023-02-02T00:03:01.881Z,3.8
2023-02-02T00:04:01.880Z,3.9
2023-02-02T00:05:01.143Z,3.9
2023-02-02T00:06:01.107Z,3.9
2023-02-02T00:07:01.114Z,3.9
2023-02-02T00:08:01.398Z,3.9
2023-02-02T00:09:01.498Z,4
2023-02-02T00:10:01.125Z,3.9
2023-02-02T00:11:01.070Z,3.9
2023-02-02T00:12:01.213Z,3.9
2023-02-02T00:13:01.153Z,4
2023-02-02T00:14:01.145Z,4
2023-02-02T00:15:01.166Z,4
2023-02-02T00:16:01.460Z,3.9
2023-02-02T00:17:01.554Z,4
2023-02-02T00:18:01.584Z,4
2023-02-02T00:19:01.126Z,4
2023-02-02T00:20:01.087Z,4
2023-02-02T00:21:01.085Z,4
2023-02-02T00:22:01.080Z,4
2023-02-02T00:23:01.109Z,4
2023-02-02T00:24:00.891Z,4
2023-02-02T00:25:01.321Z,4
2023-02-02T00:26:02.140Z,4
2023-02-02T00:27:01.155Z,4
2023-02-02T00:28:01.132Z,4
2023-02-02T00:29:01.832Z,4
2023-02-02T00:30:01.795Z,4
2023-02-02T00:31:01.457Z,4
2023-02-02T00:32:01.177Z,4.1
2023-02-02T00:33:01.179Z,4.1
2023-02-02T00:34:01.575Z,4.1
2023-02-02T00:35:01.181Z,4.1
2023-02-02T00:36:01.091Z,4.1
2023-02-02T00:37:01.096Z,4.1
2023-02-02T00:38:01.093Z,4.1
2023-02-02T00:39:01.090Z,4.1
2023-02-02T00:40:01.805Z,4.1
2023-02-02T00:41:01.111Z,4.1
2023-02-02T00:42:01.150Z,4.1
2023-02-02T00:43:01.460Z,4.1
2023-02-02T00:44:01.117Z,4.1
2023-02-02T00:45:01.141Z,4.1
2023-02-02T00:46:01.157Z,4.1
2023-02-02T00:47:01.136Z,4.1
2023-02-02T00:48:01.172Z,4.1
2023-02-02T00:49:01.164Z,4.1
2023-02-02T00:50:01.167Z,4.1
2023-02-02T00:51:01.308Z,4.1
2023-02-02T00:52:01.974Z,4.1
2023-02-02T00:53:02.231Z,4.1
2023-02-02T00:54:01.088Z,4.1
2023-02-02T00:55:01.094Z,4.1
2023-02-02T00:56:04.347Z,4.1
2023-02-02T00:57:01.775Z,4.1
2023-02-02T00:58:01.855Z,4.1
2023-02-02T00:59:01.804Z,4.1
2023-02-02T01:00:01.467Z,4.1
2023-02-02T01:01:07.991Z,4.1
2023-02-02T01:02:01.176Z,4.1
2023-02-02T01:03:01.143Z,4.1
2023-02-02T01:04:01.151Z,4.2
2023-02-02T01:05:01.800Z,4.2
2023-02-02T01:06:10.915Z,4.1
2023-02-02T01:07:01.446Z,4.1
2023-02-02T01:08:01.477Z,4.2
2023-02-02T01:09:02.295Z,4.2
2023-02-02T01:10:01.081Z,4.2
2023-02-02T01:11:13.835Z,4.2
2023-02-02T01:12:01.090Z,4.2
2023-02-02T01:13:01.109Z,4.2
2023-02-02T01:14:01.135Z,4.3
2023-02-02T01:15:01.143Z,4.3
2023-02-02T01:16:16.182Z,4.2
2023-02-02T01:17:01.548Z,4.3
2023-02-02T01:18:01.154Z,4.3
2023-02-02T01:19:01.182Z,4.3
2023-02-02T01:20:01.856Z,4.3
2023-02-02T01:21:01.183Z,4.3
2023-02-02T01:22:03.274Z,4.3
2023-02-02T01:23:01.181Z,4.3
2023-02-02T01:24:01.057Z,4.3
2023-02-02T01:25:01.281Z,4.3
2023-02-02T01:26:01.325Z,4.3
2023-02-02T01:27:01.078Z,4.2
2023-02-02T01:28:01.110Z,4.3
2023-02-02T01:29:01.116Z,4.3
2023-02-02T01:30:01.213Z,4.2
2023-02-02T01:31:01.647Z,4.3
2023-02-02T01:32:01.235Z,4.3
2023-02-02T01:33:01.187Z,4.3
2023-02-02T01:34:01.507Z,4.3
2023-02-02T01:35:01.135Z,4.3
2023-02-02T01:36:01.142Z,4.3
2023-02-02T01:37:01.502Z,4.3
2023-02-02T01:38:01.097Z,4.2
2023-02-02T01:39:01.062Z,4.2
2023-02-02T01:40:01.064Z,4.3
2023-02-02T01:41:01.066Z,4.3
2023-02-02T01:42:01.381Z,4.2
2023-02-02T01:43:01.406Z,4.2
2023-02-02T01:44:01.193Z,4.2
2023-02-02T01:45:01.112Z,4.3
2023-02-02T01:46:01.188Z,4.3
2023-02-02T01:47:01.107Z,4.3
2023-02-02T01:48:01.124Z,4.3
2023-02-02T01:49:01.129Z,4.3
2023-02-02T01:50:01.138Z,4.3
2023-02-02T01:51:01.129Z,4.3
2023-02-02T01:52:01.587Z,4.3
2023-02-02T01:53:01.302Z,4.3
2023-02-02T01:54:01.182Z,4.3
2023-02-02T01:55:01.174Z,4.3
2023-02-02T01:56:01.069Z,4.3
2023-02-02T01:57:01.128Z,4.3
2023-02-02T01:58:01.095Z,4.3
2023-02-02T01:59:01.457Z,4.3
2023-02-02T02:00:01.494Z,4.3
2023-02-02T02:01:02.138Z,4.3
2023-02-02T02:02:02.162Z,4.3
2023-02-02T02:03:01.110Z,4.3
2023-02-02T02:04:01.105Z,4.4
2023-02-02T02:05:01.114Z,4.4
2023-02-02T02:06:01.174Z,4.4
2023-02-02T02:07:01.200Z,4.3
2023-02-02T02:08:01.235Z,4.4
2023-02-02T02:09:01.506Z,4.4
2023-02-02T02:10:01.557Z,4.4
2023-02-02T02:11:01.571Z,4.4
2023-02-02T02:12:01.479Z,4.4
2023-02-02T02:13:01.202Z,4.5
2023-02-02T02:14:01.965Z,4.5
2023-02-02T02:15:02.308Z,4.5
2023-02-02T02:16:01.081Z,4.5
2023-02-02T02:17:01.123Z,4.5
2023-02-02T02:18:01.126Z,4.5
2023-02-02T02:19:02.252Z,4.5
2023-02-02T02:20:02.247Z,4.5
2023-02-02T02:21:02.268Z,4.5
2023-02-02T02:22:02.318Z,4.5
2023-02-02T02:23:01.150Z,4.5
2023-02-02T02:24:01.146Z,4.5
2023-02-02T02:25:01.144Z,4.5
2023-02-02T02:26:01.863Z,4.5
2023-02-02T02:27:01.153Z,4.5
2023-02-02T02:28:01.031Z,4.5
2023-02-02T02:29:01.477Z,4.5
2023-02-02T02:30:00.468Z,4.5
2023-02-02T02:31:00.253Z,4.5
2023-02-02T02:31:59.952Z,4.5
2023-02-02T02:32:59.636Z,4.5
2023-02-02T02:34:01.786Z,4.5
2023-02-02T02:35:01.778Z,4.6
2023-02-02T02:36:01.777Z,4.6
2023-02-02T02:37:00.860Z,4.5
2023-02-02T02:38:00.524Z,4.5
2023-02-02T02:39:00.219Z,4.5
2023-02-02T02:39:59.900Z,4.6
2023-02-02T02:40:59.592Z,4.5
2023-02-02T02:42:03.610Z,4.6
2023-02-02T02:43:01.228Z,4.6
2023-02-02T02:44:00.949Z,4.6
2023-02-02T02:45:00.647Z,4.6
2023-02-02T02:46:00.400Z,4.6
2023-02-02T02:47:05.367Z,4.6
2023-02-02T02:48:02.332Z,4.6
2023-02-02T02:49:03.030Z,4.6
2023-02-02T02:50:01.104Z,4.6
2023-02-02T02:51:00.676Z,4.6
2023-02-02T02:52:08.515Z,4.6
2023-02-02T02:53:01.389Z,4.6
2023-02-02T02:54:01.079Z,4.6
2023-02-02T02:55:01.530Z,4.6
2023-02-02T02:56:01.525Z,4.6
2023-02-02T02:57:12.658Z,4.6
2023-02-02T02:58:02.054Z,4.6
2023-02-02T02:59:01.355Z,4.6
2023-02-02T03:00:01.169Z,4.6
2023-02-02T03:01:01.166Z,4.6
2023-02-02T03:02:15.209Z,4.6
2023-02-02T03:03:01.243Z,4.7
2023-02-02T03:04:01.307Z,4.7
2023-02-02T03:05:02.361Z,4.7
2023-02-02T03:06:01.087Z,4.7
2023-02-02T03:07:01.061Z,4.7
2023-02-02T03:08:01.101Z,4.7
2023-02-02T03:09:01.105Z,4.7
2023-02-02T03:10:01.118Z,4.7
2023-02-02T03:11:01.538Z,4.7
2023-02-02T03:12:01.177Z,4.7
2023-02-02T03:13:01.546Z,4.7
2023-02-02T03:14:01.262Z,4.7
2023-02-02T03:15:01.167Z,4.7
2023-02-02T03:16:01.241Z,4.7
2023-02-02T03:17:01.164Z,4.7
2023-02-02T03:18:01.059Z,4.7
2023-02-02T03:19:01.154Z,4.7
2023-02-02T03:20:01.291Z,4.8
2023-02-02T03:21:01.300Z,4.8
2023-02-02T03:22:01.308Z,4.8
2023-02-02T03:23:04.023Z,4.8
2023-02-02T03:24:02.308Z,4.8
2023-02-02T03:25:01.107Z,4.8
2023-02-02T03:26:01.117Z,4.8
2023-02-02T03:27:01.056Z,4.8
2023-02-02T03:28:01.122Z,4.8
2023-02-02T03:29:01.432Z,4.8
2023-02-02T03:30:01.570Z,4.8
2023-02-02T03:31:08.471Z,4.8
2023-02-02T03:32:04.011Z,4.8
2023-02-02T03:33:01.193Z,4.8
2023-02-02T03:34:02.463Z,4.8
2023-02-02T03:35:01.790Z,4.8
2023-02-02T03:36:01.054Z,4.8
2023-02-02T03:37:01.060Z,4.8
2023-02-02T03:38:01.053Z,4.8
2023-02-02T03:39:01.674Z,4.8
2023-02-02T03:40:01.192Z,4.8
2023-02-02T03:41:01.113Z,4.8
2023-02-02T03:42:01.112Z,4.8
2023-02-02T03:43:01.177Z,4.8
2023-02-02T03:44:01.134Z,4.8
2023-02-02T03:45:01.175Z,4.8
2023-02-02T03:46:01.224Z,4.8
2023-02-02T03:47:01.146Z,4.8
2023-02-02T03:48:01.242Z,4.8
2023-02-02T03:49:08.016Z,4.9
2023-02-02T03:50:01.166Z,4.9
2023-02-02T03:51:01.778Z,4.9
2023-02-02T03:52:01.895Z,4.9
2023-02-02T03:53:01.495Z,4.9
2023-02-02T03:54:02.156Z,4.8
2023-02-02T03:55:01.100Z,4.9
2023-02-02T03:56:01.159Z,4.9
2023-02-02T03:57:01.136Z,4.9
2023-02-02T03:58:01.450Z,4.9
2023-02-02T03:59:00.809Z,4.9
2023-02-02T04:00:00.511Z,4.9
2023-02-02T04:01:00.223Z,4.9
2023-02-02T04:01:59.956Z,4.9
2023-02-02T04:02:59.648Z,4.9
2023-02-02T04:04:01.453Z,4.9
2023-02-02T04:05:02.596Z,4.9
2023-02-02T04:06:01.208Z,4.9
2023-02-02T04:07:01.065Z,4.9
2023-02-02T04:08:01.257Z,4.9
2023-02-02T04:09:01.788Z,4.8
2023-02-02T04:10:01.143Z,4.8
2023-02-02T04:11:01.161Z,4.8
2023-02-02T04:12:04.337Z,4.8
2023-02-02T04:13:01.867Z,4.8
2023-02-02T04:14:01.489Z,4.8
2023-02-02T04:15:01.539Z,4.8
2023-02-02T04:16:02.204Z,4.8
2023-02-02T04:17:02.588Z,4.8
2023-02-02T04:18:01.136Z,4.8
2023-02-02T04:19:01.113Z,4.8
2023-02-02T04:20:01.170Z,4.8
2023-02-02T04:21:01.172Z,4.8
2023-02-02T04:22:01.157Z,4.8
2023-02-02T04:23:02.435Z,4.8
2023-02-02T04:24:02.267Z,4.8
2023-02-02T04:25:03.172Z,4.8
2023-02-02T04:26:02.303Z,4.8
2023-02-02T04:27:01.135Z,4.7
2023-02-02T04:28:03.481Z,4.7
2023-02-02T04:29:01.871Z,4.7
2023-02-02T04:30:03.281Z,4.7
2023-02-02T04:31:00.689Z,4.7
2023-02-02T04:32:00.490Z,4.7
2023-02-02T04:33:05.961Z,4.7
2023-02-02T04:34:00.838Z,4.7
2023-02-02T04:35:01.151Z,4.7
2023-02-02T04:36:01.152Z,4.6
2023-02-02T04:37:01.189Z,4.7
2023-02-02T04:38:10.081Z,4.7
2023-02-02T04:39:00.867Z,4.7
2023-02-02T04:40:01.087Z,4.7
2023-02-02T04:41:01.307Z,4.6
2023-02-02T04:42:01.096Z,4.6
2023-02-02T04:43:11.583Z,4.7
2023-02-02T04:44:01.080Z,4.6
2023-02-02T04:45:01.068Z,4.6
2023-02-02T04:46:01.161Z,4.6
2023-02-02T04:47:01.148Z,4.6
2023-02-02T04:48:15.041Z,4.6
2023-02-02T04:49:01.181Z,4.6
2023-02-02T04:50:01.605Z,4.6
2023-02-02T04:51:01.529Z,4.6
2023-02-02T04:52:01.194Z,4.6
2023-02-02T04:53:00.966Z,4.6
2023-02-02T04:54:01.238Z,4.5
2023-02-02T04:55:01.069Z,4.5
2023-02-02T04:56:01.178Z,4.5
2023-02-02T04:57:01.088Z,4.5
2023-02-02T04:58:01.083Z,4.5
2023-02-02T04:59:01.498Z,4.5
2023-02-02T05:00:01.104Z,4.5
2023-02-02T05:01:00.842Z,4.5
2023-02-02T05:02:00.604Z,4.5
2023-02-02T05:03:00.293Z,4.5
2023-02-02T05:03:59.991Z,4.5
2023-02-02T05:04:59.854Z,4.5
2023-02-02T05:06:01.482Z,4.5
2023-02-02T05:07:01.463Z,4.5
2023-02-02T05:08:02.201Z,4.5
2023-02-02T05:09:01.288Z,4.5
2023-02-02T05:10:01.970Z,4.5
2023-02-02T05:11:01.270Z,4.5
2023-02-02T05:12:01.482Z,4.5
2023-02-02T05:13:04.126Z,4.5
2023-02-02T05:14:01.680Z,4.5
2023-02-02T05:15:01.631Z,4.5
2023-02-02T05:16:01.396Z,4.5
2023-02-02T05:17:01.204Z,4.5
2023-02-02T05:18:01.109Z,4.5
2023-02-02T05:19:01.111Z,4.5
2023-02-02T05:20:01.169Z,4.5
2023-02-02T05:21:01.280Z,4.5
2023-02-02T05:22:01.236Z,4.5
2023-02-02T05:23:01.484Z,4.5
2023-02-02T05:24:01.182Z,4.5
2023-02-02T05:25:01.095Z,4.6
2023-02-02T05:26:01.095Z,4.5
2023-02-02T05:27:01.171Z,4.6
2023-02-02T05:28:01.753Z,4.5
2023-02-02T05:29:01.801Z,4.5
2023-02-02T05:30:01.898Z,4.6
2023-02-02T05:31:01.587Z,4.6
2023-02-02T05:32:04.328Z,4.6
2023-02-02T05:33:01.622Z,4.6
2023-02-02T05:34:02.133Z,4.6
2023-02-02T05:35:01.351Z,4.6
2023-02-02T05:36:01.140Z,4.6
2023-02-02T05:37:01.063Z,4.6
2023-02-02T05:38:01.136Z,4.6
2023-02-02T05:39:01.400Z,4.6
2023-02-02T05:40:00.919Z,4.6
2023-02-02T05:41:01.265Z,4.6
2023-02-02T05:42:01.170Z,4.6
2023-02-02T05:43:01.166Z,4.6
2023-02-02T05:44:01.077Z,4.6
2023-02-02T05:45:01.079Z,4.6
2023-02-02T05:46:01.436Z,4.6
2023-02-02T05:47:01.406Z,4.6
2023-02-02T05:48:02.124Z,4.6
2023-02-02T05:49:02.252Z,4.6
2023-02-02T05:50:01.115Z,4.5
2023-02-02T05:51:01.118Z,4.5
2023-02-02T05:52:01.125Z,4.5
2023-02-02T05:53:01.129Z,4.5
2023-02-02T05:54:01.426Z,4.5
2023-02-02T05:55:01.527Z,4.5
2023-02-02T05:56:02.456Z,4.5
2023-02-02T05:57:02.181Z,4.5
2023-02-02T05:58:01.828Z,4.5
2023-02-02T05:59:01.382Z,4.5
2023-02-02T06:00:01.124Z,4.5
2023-02-02T06:01:01.215Z,4.5
2023-02-02T06:02:00.577Z,4.5
2023-02-02T06:03:00.316Z,4.5
2023-02-02T06:04:03.655Z,4.5
2023-02-02T06:05:01.963Z,4.4
2023-02-02T06:06:01.157Z,4.5
2023-02-02T06:07:01.799Z,4.5
2023-02-02T06:08:01.932Z,4.5
2023-02-02T06:09:04.811Z,4.4
2023-02-02T06:10:01.570Z,4.4
2023-02-02T06:11:01.511Z,4.4
2023-02-02T06:12:04.294Z,4.4
2023-02-02T06:13:01.143Z,4.4
2023-02-02T06:14:09.345Z,4.4
2023-02-02T06:15:01.164Z,4.4
2023-02-02T06:16:01.182Z,4.4
2023-02-02T06:17:01.061Z,4.4
2023-02-02T06:18:01.110Z,4.4
2023-02-02T06:19:11.445Z,4.4
2023-02-02T06:20:01.117Z,4.4
2023-02-02T06:21:01.052Z,4.4
2023-02-02T06:22:01.108Z,4.4
2023-02-02T06:23:01.113Z,4.4
2023-02-02T06:24:15.144Z,4.4
2023-02-02T06:25:00.847Z,4.4
2023-02-02T06:26:01.447Z,4.4
2023-02-02T06:27:01.589Z,4.4
2023-02-02T06:28:01.261Z,4.4
2023-02-02T06:29:01.150Z,4.4
2023-02-02T06:30:01.221Z,4.4
2023-02-02T06:31:01.474Z,4.4
2023-02-02T06:32:01.388Z,4.4
2023-02-02T06:33:01.182Z,4.4
2023-02-02T06:34:01.064Z,4.4
2023-02-02T06:35:01.494Z,4.4
2023-02-02T06:36:01.182Z,4.4
2023-02-02T06:37:01.093Z,4.4
2023-02-02T06:38:01.097Z,4.4
2023-02-02T06:39:00.781Z,4.4
2023-02-02T06:40:00.410Z,4.4
2023-02-02T06:41:00.027Z,4.4
2023-02-02T06:42:08.828Z,4.4
2023-02-02T06:43:01.120Z,4.4
2023-02-02T06:44:01.145Z,4.4
2023-02-02T06:45:01.245Z,4.4
2023-02-02T06:46:01.254Z,4.4
2023-02-02T06:47:01.974Z,4.4
2023-02-02T06:48:02.593Z,4.4
2023-02-02T06:49:01.171Z,4.4
2023-02-02T06:50:01.128Z,4.4
2023-02-02T06:51:01.089Z,4.5
2023-02-02T06:52:01.050Z,4.5
2023-02-02T06:53:01.181Z,4.5
2023-02-02T06:54:01.189Z,4.5
2023-02-02T06:55:01.108Z,4.5
2023-02-02T06:56:01.100Z,4.5
2023-02-02T06:57:01.111Z,4.5
2023-02-02T06:58:01.120Z,4.5
2023-02-02T06:59:00.839Z,4.5
2023-02-02T07:00:01.140Z,4.5
2023-02-02T07:01:01.142Z,4.5
2023-02-02T07:02:01.377Z,4.5
2023-02-02T07:03:01.627Z,4.5
2023-02-02T07:04:02.523Z,4.5
2023-02-02T07:05:01.358Z,4.5
2023-02-02T07:06:03.013Z,4.5
2023-02-02T07:07:01.664Z,4.5
2023-02-02T07:08:01.097Z,4.5
2023-02-02T07:09:02.815Z,4.5
2023-02-02T07:10:01.327Z,4.5
2023-02-02T07:11:14.288Z,4.5
2023-02-02T07:12:01.124Z,4.5
2023-02-02T07:13:01.126Z,4.5
2023-02-02T07:14:01.126Z,4.5
2023-02-02T07:15:00.855Z,4.5
2023-02-02T07:16:00.618Z,4.5
2023-02-02T07:17:00.302Z,4.5
2023-02-02T07:18:00.009Z,4.5
2023-02-02T07:18:59.696Z,4.5
2023-02-02T07:20:01.355Z,4.5
2023-02-02T07:21:02.087Z,4.5
2023-02-02T07:22:01.226Z,4.5
2023-02-02T07:23:01.719Z,4.5
2023-02-02T07:24:00.896Z,4.5
2023-02-02T07:25:00.790Z,4.5
2023-02-02T07:26:00.483Z,4.5
2023-02-02T07:27:00.267Z,4.5
2023-02-02T07:27:59.971Z,4.5
2023-02-02T07:28:59.889Z,4.5
2023-02-02T07:29:59.615Z,4.5
2023-02-02T07:31:01.444Z,4.5
2023-02-02T07:32:02.143Z,4.6
2023-02-02T07:33:02.734Z,4.6
2023-02-02T07:34:01.269Z,4.6
2023-02-02T07:35:01.155Z,4.6
2023-02-02T07:36:01.172Z,4.6
2023-02-02T07:37:01.313Z,4.6
2023-02-02T07:38:01.277Z,4.6
2023-02-02T07:39:01.012Z,4.6
2023-02-02T07:40:01.091Z,4.6
2023-02-02T07:41:01.451Z,4.6
2023-02-02T07:42:01.124Z,4.7
2023-02-02T07:43:01.086Z,4.6
2023-02-02T07:44:00.826Z,4.7
2023-02-02T07:45:24.518Z,4.7
2023-02-02T07:46:01.191Z,4.7
2023-02-02T07:47:01.114Z,4.7
2023-02-02T07:48:01.159Z,4.7
2023-02-02T07:49:01.136Z,4.7
2023-02-02T07:50:05.880Z,4.8
2023-02-02T07:51:01.541Z,4.7
2023-02-02T07:52:01.178Z,4.8
2023-02-02T07:53:01.196Z,4.8
2023-02-02T07:54:01.167Z,4.8
2023-02-02T07:55:14.836Z,4.8
2023-02-02T07:56:01.887Z,4.8
2023-02-02T07:57:01.578Z,4.8
2023-02-02T07:58:01.293Z,4.8
2023-02-02T07:59:00.993Z,4.8
2023-02-02T08:00:11.328Z,4.8
2023-02-02T08:01:01.600Z,4.8
2023-02-02T08:02:02.236Z,4.8
2023-02-02T08:03:01.693Z,4.8
2023-02-02T08:04:02.189Z,4.8
2023-02-02T08:05:13.812Z,4.8
2023-02-02T08:06:01.136Z,4.8
2023-02-02T08:07:01.145Z,4.8
2023-02-02T08:08:01.334Z,4.9
2023-02-02T08:09:01.260Z,4.9
2023-02-02T08:10:16.162Z,5
2023-02-02T08:11:08.409Z,5
2023-02-02T08:12:02.142Z,4.9
2023-02-02T08:13:04.109Z,5
2023-02-02T08:14:01.083Z,5
2023-02-02T08:15:01.099Z,5
2023-02-02T08:16:01.176Z,5
2023-02-02T08:17:01.157Z,5
2023-02-02T08:18:01.375Z,5
2023-02-02T08:19:00.913Z,5
2023-02-02T08:20:01.375Z,5
2023-02-02T08:21:01.142Z,5
2023-02-02T08:22:01.232Z,5
2023-02-02T08:23:01.151Z,5
2023-02-02T08:24:01.157Z,5
2023-02-02T08:25:01.166Z,5
2023-02-02T08:26:01.473Z,5
2023-02-02T08:27:02.134Z,5
2023-02-02T08:28:01.207Z,5
2023-02-02T08:29:01.792Z,5
2023-02-02T08:30:01.239Z,5
2023-02-02T08:31:01.130Z,5
2023-02-02T08:32:01.065Z,5
2023-02-02T08:33:01.105Z,5
2023-02-02T08:34:01.049Z,5
2023-02-02T08:35:01.084Z,5
2023-02-02T08:36:01.588Z,5
2023-02-02T08:37:01.249Z,5
2023-02-02T08:38:02.030Z,5
2023-02-02T08:39:03.064Z,5
2023-02-02T08:40:01.187Z,5
2023-02-02T08:41:01.158Z,5
2023-02-02T08:42:01.192Z,5
2023-02-02T08:43:01.153Z,5
2023-02-02T08:44:01.083Z,5
2023-02-02T08:46:02.075Z,5
2023-02-02T08:46:05.255Z,5
2023-02-02T08:47:02.138Z,5.1
2023-02-02T08:48:11.287Z,5.1
2023-02-02T08:49:01.103Z,5.1
2023-02-02T08:50:01.119Z,5.1
2023-02-02T08:51:01.494Z,5.1
2023-02-02T08:52:02.149Z,5.1
2023-02-02T08:53:01.140Z,5.1
2023-02-02T08:54:01.182Z,5.1
2023-02-02T08:55:01.148Z,5.1
2023-02-02T08:56:01.517Z,5.1
2023-02-02T08:57:01.146Z,5.1
2023-02-02T08:58:01.200Z,5.1
2023-02-02T08:59:01.193Z,5.1
2023-02-02T09:00:01.073Z,5.2
2023-02-02T09:01:01.113Z,5.2
2023-02-02T09:02:01.119Z,5.2
2023-02-02T09:03:01.108Z,5.2
2023-02-02T09:04:01.175Z,5.2
2023-02-02T09:05:01.382Z,5.2
2023-02-02T09:06:01.258Z,5.3
2023-02-02T09:07:01.117Z,5.3
2023-02-02T09:08:01.199Z,5.3
2023-02-02T09:09:01.120Z,5.4
2023-02-02T09:10:01.184Z,5.4
2023-02-02T09:11:01.159Z,5.4
2023-02-02T09:12:01.641Z,5.5
2023-02-02T09:13:01.106Z,5.5
2023-02-02T09:14:01.156Z,5.5
2023-02-02T09:15:01.185Z,5.5
2023-02-02T09:16:02.233Z,5.5
2023-02-02T09:17:01.371Z,5.5
2023-02-02T09:18:01.546Z,5.5
2023-02-02T09:19:02.333Z,5.5
2023-02-02T09:20:01.412Z,5.5
2023-02-02T09:21:02.204Z,5.5
2023-02-02T09:22:01.127Z,5.5
2023-02-02T09:23:01.262Z,5.5
2023-02-02T09:24:01.112Z,5.5
2023-02-02T09:25:01.158Z,5.5
2023-02-02T09:26:01.604Z,5.5
2023-02-02T09:27:01.214Z,5.4
2023-02-02T09:28:01.189Z,5.3
2023-02-02T09:29:01.190Z,5.3
2023-02-02T09:30:01.171Z,5.3
2023-02-02T09:31:01.333Z,5.2
2023-02-02T09:32:02.210Z,5.1
2023-02-02T09:33:01.177Z,5.1
2023-02-02T09:34:01.422Z,5.1
2023-02-02T09:35:01.476Z,5
2023-02-02T09:36:03.123Z,5
2023-02-02T09:37:01.111Z,4.9
2023-02-02T09:38:00.845Z,4.9
2023-02-02T09:39:00.495Z,4.9
2023-02-02T09:40:00.394Z,4.9
2023-02-02T09:41:07.535Z,4.9
2023-02-02T09:42:02.180Z,5
2023-02-02T09:43:02.240Z,5
2023-02-02T09:44:01.137Z,5
2023-02-02T09:45:01.143Z,5
2023-02-02T09:46:09.617Z,5
2023-02-02T09:47:01.508Z,5
2023-02-02T09:48:01.442Z,5
2023-02-02T09:49:02.335Z,5.1
2023-02-02T09:50:02.092Z,5.1
2023-02-02T09:51:13.035Z,5.1
2023-02-02T09:52:01.926Z,5.1
2023-02-02T09:53:01.085Z,5.2
2023-02-02T09:54:01.100Z,5.2
2023-02-02T09:55:02.167Z,5.3
2023-02-02T09:56:15.553Z,5.3
2023-02-02T09:57:01.428Z,5.3
2023-02-02T09:58:01.325Z,5.4
2023-02-02T09:59:13.620Z,5.4
2023-02-02T10:00:01.144Z,5.5
2023-02-02T10:01:01.188Z,5.5
2023-02-02T10:02:01.138Z,5.5
2023-02-02T10:03:01.157Z,5.6
2023-02-02T10:04:01.260Z,5.6
2023-02-02T10:05:01.059Z,5.6
2023-02-02T10:06:01.071Z,5.6
2023-02-02T10:07:01.046Z,5.6
2023-02-02T10:08:01.481Z,5.6
2023-02-02T10:09:01.096Z,5.6
2023-02-02T10:10:01.097Z,5.6
2023-02-02T10:11:01.144Z,5.6
2023-02-02T10:12:01.120Z,5.6
2023-02-02T10:13:01.115Z,5.5
2023-02-02T10:14:01.116Z,5.5
2023-02-02T10:15:01.201Z,5.5
2023-02-02T10:16:01.975Z,5.5
2023-02-02T10:17:01.636Z,5.4
2023-02-02T10:18:01.197Z,5.4
2023-02-02T10:19:01.184Z,5.5
2023-02-02T10:20:00.940Z,5.5
2023-02-02T10:21:01.159Z,5.5
2023-02-02T10:22:01.183Z,5.5
2023-02-02T10:23:01.223Z,5.5
2023-02-02T10:24:02.390Z,5.6
2023-02-02T10:25:01.103Z,5.6
2023-02-02T10:26:01.107Z,5.6
2023-02-02T10:27:01.104Z,5.6
2023-02-02T10:28:01.068Z,5.6
2023-02-02T10:29:01.090Z,5.7
2023-02-02T10:30:01.131Z,5.7
2023-02-02T10:31:01.325Z,5.7
2023-02-02T10:32:01.227Z,5.7
2023-02-02T10:33:02.055Z,5.8
2023-02-02T10:34:02.651Z,5.8
2023-02-02T10:35:13.015Z,5.8
2023-02-02T10:36:02.608Z,5.8
2023-02-02T10:37:01.984Z,5.8
2023-02-02T10:38:02.591Z,5.8
2023-02-02T10:39:01.081Z,5.8
2023-02-02T10:40:00.938Z,5.9
2023-02-02T10:41:01.101Z,5.9
2023-02-02T10:42:01.522Z,5.9
2023-02-02T10:43:01.103Z,5.9
2023-02-02T10:44:01.106Z,6
2023-02-02T10:45:01.120Z,6
2023-02-02T10:46:01.099Z,6
2023-02-02T10:47:01.132Z,6
2023-02-02T10:48:01.131Z,6
2023-02-02T10:49:03.934Z,6.1
2023-02-02T10:50:01.184Z,6.1
2023-02-02T10:51:01.175Z,6.1
2023-02-02T10:52:01.604Z,6.1
2023-02-02T10:53:01.660Z,6.1
2023-02-02T10:54:01.060Z,6.1
2023-02-02T10:55:04.032Z,6.1
2023-02-02T10:56:01.090Z,6.1
2023-02-02T10:57:01.095Z,6.1
2023-02-02T10:58:01.124Z,6.1
2023-02-02T10:59:01.078Z,6.1
2023-02-02T11:00:00.847Z,6.1
2023-02-02T11:01:01.202Z,6.1
2023-02-02T11:02:11.576Z,6.1
2023-02-02T11:03:02.376Z,6
2023-02-02T11:04:01.132Z,6
2023-02-02T11:05:01.066Z,6
2023-02-02T11:06:01.073Z,6
2023-02-02T11:07:01.730Z,6
2023-02-02T11:08:01.164Z,6
2023-02-02T11:09:01.199Z,6.1
2023-02-02T11:10:01.895Z,6
2023-02-02T11:11:02.033Z,6.1
2023-02-02T11:12:02.745Z,6.1
2023-02-02T11:13:02.087Z,6.1
2023-02-02T11:14:01.084Z,6.1
2023-02-02T11:15:01.091Z,6.2
2023-02-02T11:16:05.602Z,6.2
2023-02-02T11:17:01.875Z,6.2
2023-02-02T11:18:01.165Z,6.2
2023-02-02T11:19:02.097Z,6.2
2023-02-02T11:20:01.135Z,6.1
2023-02-02T11:21:01.141Z,6.1
2023-02-02T11:22:01.737Z,6.1
2023-02-02T11:23:01.152Z,6.1
2023-02-02T11:24:01.174Z,6.1
2023-02-02T11:25:01.153Z,6.1
2023-02-02T11:26:01.169Z,6.1
2023-02-02T11:27:04.732Z,6.1
2023-02-02T11:28:01.075Z,6.1
2023-02-02T11:29:01.264Z,6.1
2023-02-02T11:30:01.114Z,6.1
2023-02-02T11:31:01.048Z,6.1
2023-02-02T11:32:06.338Z,6.1
2023-02-02T11:33:01.118Z,6.1
2023-02-02T11:34:01.132Z,6.1
2023-02-02T11:35:01.116Z,6.1
2023-02-02T11:36:01.135Z,6.1
2023-02-02T11:37:09.631Z,6.1
2023-02-02T11:38:01.140Z,6.1
2023-02-02T11:39:01.158Z,6.1
2023-02-02T11:40:01.555Z,6.1
2023-02-02T11:41:01.455Z,6.1
2023-02-02T11:42:13.206Z,6
2023-02-02T11:43:02.191Z,6
2023-02-02T11:44:01.114Z,6
2023-02-02T11:45:01.284Z,6
2023-02-02T11:46:03.069Z,6
2023-02-02T11:47:15.739Z,6
2023-02-02T11:48:01.408Z,6
2023-02-02T11:49:01.383Z,6
2023-02-02T11:50:02.139Z,6
2023-02-02T11:51:02.251Z,6
2023-02-02T11:52:16.820Z,6
2023-02-02T11:53:00.952Z,6
2023-02-02T11:54:00.661Z,6.1
2023-02-02T11:55:00.360Z,6.1
2023-02-02T11:56:00.043Z,6.1
2023-02-02T11:56:59.727Z,6.1
2023-02-02T11:58:01.483Z,6.1
2023-02-02T11:59:02.284Z,6.1
2023-02-02T12:00:01.182Z,6.1
2023-02-02T12:01:02.157Z,6.1
2023-02-02T12:02:01.137Z,6.1
2023-02-02T12:03:01.089Z,6.1
2023-02-02T12:04:01.203Z,6.1
2023-02-02T12:05:01.093Z,6.1
2023-02-02T12:06:01.120Z,6.2
2023-02-02T12:07:01.541Z,6.2
2023-02-02T12:08:01.225Z,6.3
2023-02-02T12:09:01.180Z,6.3
2023-02-02T12:10:01.560Z,6.3
2023-02-02T12:11:01.271Z,6.3
2023-02-02T12:12:01.140Z,6.3
2023-02-02T12:13:01.168Z,6.4
2023-02-02T12:14:01.174Z,6.4
2023-02-02T12:15:01.884Z,6.4
2023-02-02T12:16:01.126Z,6.4
2023-02-02T12:17:01.092Z,6.4
2023-02-02T12:18:01.554Z,6.4
2023-02-02T12:19:01.084Z,6.4
2023-02-02T12:20:01.371Z,6.4
2023-02-02T12:21:01.077Z,6.5
2023-02-02T12:22:01.106Z,6.5
2023-02-02T12:23:01.117Z,6.4
2023-02-02T12:24:01.137Z,6.5
2023-02-02T12:25:01.783Z,6.4
2023-02-02T12:26:01.509Z,6.5
2023-02-02T12:27:01.609Z,6.5
2023-02-02T12:28:01.935Z,6.4
2023-02-02T12:29:02.515Z,6.5
2023-02-02T12:30:01.199Z,6.5
2023-02-02T12:31:01.250Z,6.5
2023-02-02T12:32:01.265Z,6.5
2023-02-02T12:33:01.085Z,6.5
2023-02-02T12:34:01.208Z,6.5
2023-02-02T12:35:01.466Z,6.5
2023-02-02T12:36:01.480Z,6.5
2023-02-02T12:37:01.204Z,6.5
2023-02-02T12:38:01.185Z,6.5
2023-02-02T12:39:01.109Z,6.5
2023-02-02T12:40:01.342Z,6.5
2023-02-02T12:41:01.132Z,6.5
2023-02-02T12:42:01.125Z,6.5
2023-02-02T12:43:01.540Z,6.5
2023-02-02T12:44:02.280Z,6.5
2023-02-02T12:45:01.359Z,6.5
2023-02-02T12:46:00.928Z,6.5
2023-02-02T12:47:01.182Z,6.5
2023-02-02T12:48:01.073Z,6.5
2023-02-02T12:49:01.436Z,6.5
2023-02-02T12:50:01.083Z,6.4
2023-02-02T12:51:01.108Z,6.5
2023-02-02T12:52:01.091Z,6.5
2023-02-02T12:53:01.149Z,6.5
2023-02-02T12:54:33.743Z,6.5
2023-02-02T12:55:01.132Z,6.5
2023-02-02T12:56:01.158Z,6.6
2023-02-02T12:57:01.213Z,6.6
2023-02-02T12:58:01.187Z,6.6
2023-02-02T12:59:01.157Z,6.6
2023-02-02T13:00:01.085Z,6.6
2023-02-02T13:01:01.241Z,6.6
2023-02-02T13:02:01.165Z,6.6
2023-02-02T13:03:01.180Z,6.6
2023-02-02T13:04:01.167Z,6.5
2023-02-02T13:05:01.233Z,6.5
2023-02-02T13:06:01.802Z,6.5
2023-02-02T13:07:02.102Z,6.6
2023-02-02T13:08:02.680Z,6.6
2023-02-02T13:09:01.115Z,6.6
2023-02-02T13:10:01.127Z,6.7
2023-02-02T13:11:01.121Z,6.7
2023-02-02T13:12:01.290Z,6.7
2023-02-02T13:13:05.953Z,6.7
2023-02-02T13:14:01.244Z,6.7
2023-02-02T13:15:01.199Z,6.7
2023-02-02T13:16:01.163Z,6.6
2023-02-02T13:17:01.180Z,6.6
2023-02-02T13:18:10.446Z,6.6
2023-02-02T13:19:01.162Z,6.6
2023-02-02T13:20:01.452Z,6.6
2023-02-02T13:21:01.580Z,6.6
2023-02-02T13:22:02.206Z,6.6
2023-02-02T13:23:12.781Z,6.6
2023-02-02T13:24:01.080Z,6.6
2023-02-02T13:25:01.476Z,6.6
2023-02-02T13:26:01.179Z,6.6
2023-02-02T13:27:01.276Z,6.6
2023-02-02T13:28:15.098Z,6.6
2023-02-02T13:29:02.019Z,6.6
2023-02-02T13:30:01.191Z,6.6
2023-02-02T13:31:01.575Z,6.6
2023-02-02T13:32:02.155Z,6.6
2023-02-02T13:33:01.740Z,6.6
2023-02-02T13:34:01.169Z,6.6
2023-02-02T13:35:01.154Z,6.6
2023-02-02T13:36:01.169Z,6.6
2023-02-02T13:37:01.065Z,6.6
2023-02-02T13:38:01.201Z,6.6
2023-02-02T13:39:01.058Z,6.6
2023-02-02T13:40:00.877Z,6.6
2023-02-02T13:41:01.480Z,6.6
2023-02-02T13:42:01.101Z,6.6
2023-02-02T13:43:01.110Z,6.6
2023-02-02T13:44:01.831Z,6.6
2023-02-02T13:45:01.117Z,6.6
2023-02-02T13:46:01.290Z,6.7
2023-02-02T13:47:01.955Z,6.6
2023-02-02T13:48:01.955Z,6.7
2023-02-02T13:49:01.224Z,6.6
2023-02-02T13:50:01.590Z,6.6
2023-02-02T13:51:01.224Z,6.6
2023-02-02T13:52:01.986Z,6.6